createdAt,value
2019-03-04T00:04:49.145Z,2.00
2019-03-04T00:09:53.290Z,1.60
2019-03-04T00:14:56.900Z,1.40
2019-03-04T00:20:00.473Z,1.60
2019-03-04T00:25:05.304Z,1.67
2019-03-04T00:30:10.733Z,1.63
2019-03-04T00:35:14.392Z,1.40
2019-03-04T00:40:18.981Z,1.63
2019-03-04T00:45:22.622Z,1.67
2019-03-04T00:50:26.283Z,1.77
2019-03-04T00:55:29.959Z,1.60
2019-03-04T01:00:33.949Z,1.70
2019-03-04T01:05:37.610Z,2.03
2019-03-04T01:10:41.265Z,1.60
2019-03-04T01:15:44.858Z,1.60
2019-03-04T01:20:48.854Z,1.50
2019-03-04T01:25:52.521Z,1.97
2019-03-04T01:30:56.183Z,1.40
2019-03-04T01:35:59.791Z,1.70
2019-03-04T01:41:03.392Z,1.30
2019-03-04T01:46:07.061Z,1.30
2019-03-04T01:51:10.644Z,1.50
2019-03-04T01:56:14.304Z,1.67
2019-03-04T02:01:18.202Z,3.30
2019-03-04T02:06:21.791Z,3.83
2019-03-04T02:11:25.838Z,4.23
2019-03-04T02:16:29.867Z,4.03
2019-03-04T02:21:33.847Z,4.57
2019-03-04T02:26:37.690Z,5.03
2019-03-04T02:31:41.346Z,4.77
2019-03-04T02:36:44.938Z,4.30
2019-03-04T02:41:48.612Z,4.73
2019-03-04T02:46:52.242Z,4.37
2019-03-04T02:51:55.819Z,4.00
2019-03-04T02:56:59.783Z,4.50
2019-03-04T03:02:03.467Z,4.50
2019-03-04T03:07:07.230Z,4.63
2019-03-04T03:12:10.902Z,4.30
2019-03-04T03:17:14.827Z,4.20
2019-03-04T03:22:18.544Z,3.97
2019-03-04T03:27:22.143Z,3.67
2019-03-04T03:32:25.759Z,3.00
2019-03-04T03:37:29.397Z,2.60
2019-03-04T03:42:35.400Z,2.90
2019-03-04T03:47:39.330Z,2.50
2019-03-04T03:52:42.993Z,3.03
2019-03-04T03:57:46.718Z,2.60
2019-03-04T04:02:50.379Z,2.17
2019-03-04T04:07:53.963Z,1.90
2019-03-04T04:12:57.581Z,1.83
2019-03-04T04:18:01.161Z,1.63
2019-03-04T04:23:04.838Z,2.00
2019-03-04T04:28:09.602Z,1.70
2019-03-04T04:33:13.329Z,1.97
2019-03-04T04:38:16.933Z,1.97
2019-03-04T04:43:20.515Z,1.47
2019-03-04T04:48:24.107Z,1.83
2019-03-04T04:53:27.695Z,1.90
2019-03-04T04:58:31.292Z,1.53
2019-03-04T05:03:34.877Z,1.77
2019-03-04T05:08:38.465Z,1.37
2019-03-04T05:13:43.593Z,1.70
2019-03-04T05:18:47.198Z,1.53
2019-03-04T05:23:52.123Z,1.50
2019-03-04T05:28:56.187Z,1.90
2019-03-04T05:33:59.846Z,2.20
2019-03-04T05:39:04.887Z,2.10
2019-03-04T05:44:08.490Z,2.53
2019-03-04T05:49:12.165Z,1.70
2019-03-04T05:54:16.111Z,2.10
2019-03-04T05:59:20.268Z,4.00
2019-03-04T06:04:24.006Z,2.37
2019-03-04T06:09:27.595Z,2.60
2019-03-04T06:14:31.183Z,1.67
2019-03-04T06:19:34.841Z,2.13
2019-03-04T06:24:38.771Z,1.80
2019-03-04T06:29:42.807Z,1.83
2019-03-04T06:34:46.510Z,2.00
2019-03-04T06:39:50.174Z,2.47
2019-03-04T06:44:54.153Z,2.40
2019-03-04T06:49:58.083Z,2.47
2019-03-04T06:55:19.859Z,3.97
2019-03-04T07:00:26.530Z,2.43
2019-03-04T07:05:47.762Z,2.70
2019-03-04T07:10:51.765Z,2.60
2019-03-04T07:15:55.363Z,2.60
2019-03-04T07:20:58.962Z,2.67
2019-03-04T07:26:02.968Z,2.67
2019-03-04T07:31:07.106Z,2.33
2019-03-04T07:36:10.991Z,3.53
2019-03-04T07:41:14.656Z,2.80
2019-03-04T07:46:18.322Z,2.73
2019-03-04T07:51:21.974Z,2.97
2019-03-04T07:56:25.634Z,2.50
2019-03-04T08:01:29.614Z,2.60
2019-03-04T08:06:33.682Z,1.83
2019-03-04T08:12:14.134Z,1.60
2019-03-04T08:17:18.075Z,1.30
2019-03-04T08:22:21.654Z,1.70
2019-03-04T08:27:25.700Z,1.77
2019-03-04T08:32:29.657Z,1.70
2019-03-04T08:37:33.586Z,1.93
2019-03-04T08:42:37.169Z,1.77
2019-03-04T08:47:40.894Z,1.40
2019-03-04T08:52:44.975Z,1.50
2019-03-04T08:57:48.863Z,1.93
2019-03-04T09:02:52.587Z,1.47
2019-03-04T09:07:56.170Z,2.00
2019-03-04T09:12:59.893Z,1.80
2019-03-04T09:18:03.580Z,1.40
2019-03-04T09:23:07.235Z,1.70
2019-03-04T09:28:10.909Z,1.57
2019-03-04T09:33:14.566Z,1.57
2019-03-04T09:38:18.156Z,1.17
2019-03-04T09:43:22.071Z,1.30
2019-03-04T09:48:25.729Z,1.40
2019-03-04T09:53:38.842Z,1.60
2019-03-04T09:58:34.940Z,1.50
2019-03-04T10:03:41.630Z,1.60
2019-03-04T10:09:05.243Z,1.77
2019-03-04T10:14:29.985Z,1.50
2019-03-04T10:19:45.234Z,2.43
2019-03-04T10:25:01.071Z,1.77
2019-03-04T10:30:38.003Z,1.63
2019-03-04T10:35:44.780Z,2.00
2019-03-04T10:41:00.005Z,2.00
2019-03-04T10:46:27.822Z,3.23
2019-03-04T10:51:31.824Z,2.80
2019-03-04T10:56:35.487Z,3.00
2019-03-04T11:01:39.146Z,2.80
2019-03-04T11:06:43.170Z,1.97
2019-03-04T11:11:46.823Z,1.80
2019-03-04T11:16:50.664Z,2.30
2019-03-04T11:21:54.333Z,2.10
2019-03-04T11:26:57.989Z,2.30
2019-03-04T11:32:01.739Z,2.10
2019-03-04T11:37:05.574Z,2.77
2019-03-04T11:42:09.762Z,3.30
2019-03-04T11:47:13.446Z,1.90
2019-03-04T11:52:17.043Z,2.10
2019-03-04T11:57:21.042Z,1.80
2019-03-04T12:02:25.843Z,3.00
2019-03-04T12:07:29.838Z,2.10
2019-03-04T12:12:33.891Z,1.50
2019-03-04T12:17:39.013Z,1.80
2019-03-04T12:22:42.773Z,2.10
2019-03-04T12:27:47.147Z,1.63
2019-03-04T12:32:52.046Z,1.23
2019-03-04T12:37:55.984Z,1.73
2019-03-04T12:42:59.565Z,1.67
2019-03-04T12:48:03.245Z,1.40
2019-03-04T12:53:06.981Z,1.60
2019-03-04T12:58:10.584Z,1.80
2019-03-04T13:03:19.469Z,1.80
2019-03-04T13:08:23.137Z,1.80
2019-03-04T13:13:27.054Z,2.00
2019-03-04T13:18:30.632Z,1.93
2019-03-04T13:23:34.289Z,1.40
2019-03-04T13:28:37.958Z,1.60
2019-03-04T13:33:41.930Z,2.50
2019-03-04T13:38:45.521Z,1.50
2019-03-04T13:43:49.115Z,1.83
2019-03-04T13:48:53.126Z,2.40
2019-03-04T13:53:56.715Z,1.97
2019-03-04T13:59:00.330Z,2.23
2019-03-04T14:04:04.582Z,1.90
2019-03-04T14:09:09.584Z,1.70
2019-03-04T14:14:13.240Z,2.30
2019-03-04T14:19:16.838Z,2.00
2019-03-04T14:24:20.813Z,2.20
2019-03-04T14:29:24.442Z,2.93
2019-03-04T14:34:28.281Z,1.80
2019-03-04T14:39:31.890Z,1.70
2019-03-04T14:44:35.834Z,1.57
2019-03-04T14:49:44.655Z,1.77
2019-03-04T14:54:44.733Z,2.10
2019-03-04T14:59:48.273Z,2.07
2019-03-04T15:04:51.937Z,1.70
2019-03-04T15:09:55.533Z,1.50
2019-03-04T15:14:59.127Z,2.03
2019-03-04T15:20:09.168Z,2.03
2019-03-04T15:25:11.132Z,1.47
2019-03-04T15:30:14.866Z,2.03
2019-03-04T15:35:18.473Z,2.57
2019-03-04T15:40:22.074Z,2.43
2019-03-04T15:45:25.762Z,2.43
2019-03-04T15:50:29.369Z,2.57
2019-03-04T15:55:33.109Z,2.20
2019-03-04T16:00:38.547Z,2.10
2019-03-04T16:05:42.701Z,1.43
2019-03-04T16:10:46.723Z,1.23
2019-03-04T16:15:50.598Z,0.60
2019-03-04T16:20:54.334Z,0.73
2019-03-04T16:25:58.074Z,1.07
2019-03-04T16:31:02.787Z,0.90
2019-03-04T16:36:06.423Z,1.30
2019-03-04T16:41:10.025Z,1.30
2019-03-04T16:46:13.694Z,2.50
2019-03-04T16:51:17.282Z,1.67
2019-03-04T16:56:20.866Z,2.07
2019-03-04T17:01:24.536Z,1.53
2019-03-04T17:06:28.513Z,2.70
2019-03-04T17:11:32.521Z,1.20
2019-03-04T17:16:55.522Z,2.00
2019-03-04T17:21:59.110Z,1.53
2019-03-04T17:27:02.701Z,1.80
2019-03-04T17:32:07.347Z,2.70
2019-03-04T17:37:11.078Z,1.57
2019-03-04T17:42:14.672Z,1.80
2019-03-04T17:47:18.422Z,2.10
2019-03-04T17:52:22.406Z,1.70
2019-03-04T17:57:26.229Z,1.47
2019-03-04T18:02:30.137Z,1.77
2019-03-04T18:07:33.763Z,2.07
2019-03-04T18:12:37.417Z,1.67
2019-03-04T18:17:41.409Z,1.30
2019-03-04T18:22:46.154Z,1.63
2019-03-04T18:27:53.510Z,1.20
2019-03-04T18:33:12.342Z,1.20
2019-03-04T18:38:28.477Z,1.20
2019-03-04T18:44:00.952Z,1.30
2019-03-04T18:49:04.612Z,0.80
2019-03-04T18:54:09.550Z,1.00
2019-03-04T18:59:13.362Z,1.67
2019-03-04T19:04:17.040Z,0.97
2019-03-04T19:09:20.707Z,1.67
2019-03-04T19:14:24.633Z,2.33
2019-03-04T19:19:28.295Z,2.20
2019-03-04T19:24:32.284Z,2.20
2019-03-04T19:29:35.869Z,1.23
2019-03-04T19:34:39.465Z,1.10
2019-03-04T19:39:43.458Z,1.40
2019-03-04T19:44:48.349Z,1.60
2019-03-04T19:49:52.098Z,1.50
2019-03-04T19:54:55.807Z,4.60
2019-03-04T19:59:59.397Z,2.20
2019-03-04T20:05:03.117Z,3.67
2019-03-04T20:10:09.787Z,3.17
2019-03-04T20:15:30.434Z,2.00
2019-03-04T20:20:34.158Z,2.80
2019-03-04T20:25:37.900Z,3.83
2019-03-04T20:30:41.495Z,3.70
2019-03-04T20:35:45.093Z,2.30
2019-03-04T20:40:48.749Z,2.23
2019-03-04T20:45:52.502Z,2.30
2019-03-04T20:50:56.177Z,2.53
2019-03-04T20:56:00.629Z,2.43
2019-03-04T21:01:05.517Z,1.97
2019-03-04T21:06:09.830Z,2.10
2019-03-04T21:11:13.709Z,1.37
2019-03-04T21:16:17.450Z,1.80
2019-03-04T21:21:21.149Z,1.57
2019-03-04T21:26:25.245Z,1.50
2019-03-04T21:31:40.589Z,1.70
2019-03-04T21:36:59.377Z,1.80
2019-03-04T21:42:11.862Z,1.80
2019-03-04T21:47:24.307Z,1.70
2019-03-04T21:52:33.774Z,1.70
2019-03-04T21:57:41.110Z,1.60
2019-03-04T22:02:47.785Z,1.53
2019-03-04T22:07:51.503Z,1.60
2019-03-04T22:12:57.355Z,1.70
2019-03-04T22:18:01.128Z,1.90
2019-03-04T22:23:04.793Z,2.00
2019-03-04T22:28:08.995Z,1.87
2019-03-04T22:33:13.277Z,2.03
2019-03-04T22:38:16.877Z,2.37
2019-03-04T22:43:20.529Z,2.37
2019-03-04T22:48:24.249Z,1.87
2019-03-04T22:53:27.894Z,2.00
2019-03-04T22:58:31.955Z,3.33
2019-03-04T23:03:40.367Z,1.70
2019-03-04T23:08:43.970Z,2.13
2019-03-04T23:13:53.531Z,2.03
2019-03-04T23:18:57.254Z,2.00
2019-03-04T23:24:01.309Z,2.07
2019-03-04T23:29:05.378Z,1.80
2019-03-04T23:34:09.373Z,2.13
2019-03-04T23:39:13.470Z,2.23
2019-03-04T23:44:17.138Z,2.73
2019-03-04T23:49:20.808Z,1.90
2019-03-04T23:54:24.397Z,1.77
2019-03-04T23:59:27.982Z,2.07
